createdAt,value
2023-05-09T00:00:45.374Z,3.38
2023-05-09T00:01:46.978Z,3.40
2023-05-09T00:02:48.647Z,3.22
2023-05-09T00:03:51.829Z,3.90
2023-05-09T00:04:53.594Z,3.83
2023-05-09T00:05:55.223Z,3.38
2023-05-09T00:06:56.950Z,3.58
2023-05-09T00:07:58.508Z,3.63
2023-05-09T00:09:00.111Z,3.78
2023-05-09T00:10:01.755Z,3.40
2023-05-09T00:11:03.477Z,3.78
2023-05-09T00:12:05.487Z,3.70
2023-05-09T00:13:07.224Z,3.70
2023-05-09T00:14:08.814Z,3.35
2023-05-09T00:15:11.016Z,3.78
2023-05-09T00:16:13.885Z,3.53
2023-05-09T00:17:16.134Z,3.72
2023-05-09T00:18:18.068Z,3.97
2023-05-09T00:19:20.206Z,3.78
2023-05-09T00:20:21.786Z,3.60
2023-05-09T00:21:23.329Z,3.53
2023-05-09T00:22:24.922Z,3.75
2023-05-09T00:23:26.450Z,3.83
2023-05-09T00:24:28.074Z,3.53
2023-05-09T00:25:29.665Z,3.35
2023-05-09T00:26:31.203Z,3.50
2023-05-09T00:27:32.752Z,3.60
2023-05-09T00:28:34.320Z,3.72
2023-05-09T00:29:35.984Z,3.72
2023-05-09T00:30:37.554Z,3.95
2023-05-09T00:31:39.187Z,3.78
2023-05-09T00:32:41.655Z,3.83
2023-05-09T00:33:43.407Z,3.83
2023-05-09T00:34:44.957Z,4.00
2023-05-09T00:35:46.771Z,4.20
2023-05-09T00:36:48.369Z,4.00
2023-05-09T00:37:49.942Z,3.88
2023-05-09T00:38:51.506Z,3.72
2023-05-09T00:39:53.096Z,3.50
2023-05-09T00:40:54.638Z,3.78
2023-05-09T00:41:56.445Z,3.95
2023-05-09T00:42:59.558Z,3.63
2023-05-09T00:44:01.113Z,3.90
2023-05-09T00:45:02.815Z,3.78
2023-05-09T00:46:04.600Z,3.70
2023-05-09T00:47:07.479Z,3.63
2023-05-09T00:48:09.048Z,3.67
2023-05-09T00:49:12.388Z,4.00
2023-05-09T00:50:14.020Z,3.63
2023-05-09T00:51:15.739Z,3.40
2023-05-09T00:52:21.846Z,3.65
2023-05-09T00:53:23.407Z,4.18
2023-05-09T00:54:25.152Z,3.67
2023-05-09T00:55:27.336Z,3.88
2023-05-09T00:56:28.875Z,4.00
2023-05-09T00:57:30.616Z,3.63
2023-05-09T00:58:32.258Z,4.03
2023-05-09T00:59:33.820Z,4.03
2023-05-09T01:00:35.534Z,4.10
2023-05-09T01:01:37.507Z,3.83
2023-05-09T01:02:43.878Z,4.15
2023-05-09T01:03:45.783Z,3.70
2023-05-09T01:04:47.347Z,3.65
2023-05-09T01:06:09.279Z,3.83
2023-05-09T01:07:29.960Z,3.80
2023-05-09T01:08:56.190Z,3.40
2023-05-09T01:10:04.833Z,3.80
2023-05-09T01:11:25.106Z,3.78
2023-05-09T01:12:31.831Z,4.10
2023-05-09T01:13:49.763Z,3.85
2023-05-09T01:15:07.928Z,4.00
2023-05-09T01:16:35.478Z,4.00
2023-05-09T01:17:39.132Z,4.00
2023-05-09T01:18:45.589Z,3.50
2023-05-09T01:19:50.055Z,3.50
2023-05-09T01:20:58.504Z,3.80
2023-05-09T01:22:01.014Z,4.05
2023-05-09T01:23:30.284Z,3.95
2023-05-09T01:24:46.392Z,4.20
2023-05-09T01:25:54.493Z,3.50
2023-05-09T01:27:15.804Z,3.75
2023-05-09T01:29:35.373Z,4.03
2023-05-09T01:30:36.957Z,4.03
2023-05-09T01:31:39.850Z,4.10
2023-05-09T01:33:43.872Z,3.40
2023-05-09T01:34:45.441Z,3.40
2023-05-09T01:35:50.099Z,3.85
2023-05-09T01:36:52.008Z,4.07
2023-05-09T01:37:53.553Z,3.90
2023-05-09T01:38:55.106Z,3.67
2023-05-09T01:39:58.835Z,4.32
2023-05-09T01:41:00.466Z,3.78
2023-05-09T01:42:03.223Z,3.55
2023-05-09T01:43:07.234Z,3.83
2023-05-09T01:44:11.156Z,3.75
2023-05-09T01:45:13.870Z,3.78
2023-05-09T01:47:18.426Z,3.60
2023-05-09T01:48:21.013Z,4.13
2023-05-09T01:49:22.763Z,3.53
2023-05-09T01:50:24.299Z,3.72
2023-05-09T01:51:26.039Z,3.92
2023-05-09T01:52:27.962Z,3.72
2023-05-09T01:53:29.535Z,3.67
2023-05-09T01:54:31.158Z,3.90
2023-05-09T01:55:33.812Z,3.97
2023-05-09T01:56:36.271Z,4.28
2023-05-09T01:57:38.130Z,3.92
2023-05-09T01:58:39.680Z,4.13
2023-05-09T01:59:42.283Z,3.70
2023-05-09T02:00:44.065Z,3.90
2023-05-09T02:01:46.232Z,3.88
2023-05-09T02:02:48.007Z,3.70
2023-05-09T02:03:52.660Z,3.55
2023-05-09T02:04:55.894Z,3.85
2023-05-09T02:05:57.422Z,4.18
2023-05-09T02:06:58.978Z,3.88
2023-05-09T02:08:00.738Z,3.65
2023-05-09T02:09:02.686Z,3.72
2023-05-09T02:10:05.021Z,4.15
2023-05-09T02:11:07.341Z,4.15
2023-05-09T02:12:09.021Z,3.58
2023-05-09T02:13:10.991Z,4.30
2023-05-09T02:14:13.494Z,4.13
2023-05-09T02:15:15.232Z,3.65
2023-05-09T02:16:17.262Z,4.20
2023-05-09T02:17:19.229Z,4.30
2023-05-09T02:18:21.826Z,3.67
2023-05-09T02:19:23.361Z,3.60
2023-05-09T02:20:24.931Z,4.00
2023-05-09T02:21:27.898Z,4.30
2023-05-09T02:22:30.706Z,3.50
2023-05-09T02:23:32.328Z,4.20
2023-05-09T02:24:36.788Z,4.22
2023-05-09T02:25:38.441Z,4.32
2023-05-09T02:26:40.413Z,4.03
2023-05-09T02:27:42.469Z,3.80
2023-05-09T02:28:44.413Z,3.80
2023-05-09T02:29:50.575Z,4.15
2023-05-09T02:30:52.213Z,3.85
2023-05-09T02:31:53.770Z,4.15
2023-05-09T02:32:59.886Z,4.07
2023-05-09T02:34:02.513Z,3.83
2023-05-09T02:35:04.213Z,4.13
2023-05-09T02:36:06.210Z,4.15
2023-05-09T02:37:07.835Z,4.45
2023-05-09T02:38:09.402Z,4.00
2023-05-09T02:39:11.442Z,4.18
2023-05-09T02:40:13.455Z,4.00
2023-05-09T02:41:15.672Z,4.32
2023-05-09T02:42:21.267Z,4.38
2023-05-09T02:43:22.800Z,3.90
2023-05-09T02:44:24.360Z,4.30
2023-05-09T02:45:26.147Z,4.30
2023-05-09T02:46:31.036Z,4.70
2023-05-09T02:47:33.033Z,4.88
2023-05-09T02:48:35.369Z,4.43
2023-05-09T02:49:36.971Z,4.32
2023-05-09T02:50:39.515Z,3.92
2023-05-09T02:51:41.119Z,4.10
2023-05-09T02:52:42.624Z,4.07
2023-05-09T02:53:44.173Z,4.15
2023-05-09T02:54:45.808Z,4.40
2023-05-09T02:55:47.357Z,4.00
2023-05-09T02:56:48.908Z,4.47
2023-05-09T02:57:54.113Z,3.85
2023-05-09T02:59:04.114Z,3.80
2023-05-09T03:00:09.685Z,4.15
2023-05-09T03:01:11.262Z,4.07
2023-05-09T03:02:12.850Z,4.05
2023-05-09T03:03:14.701Z,4.05
2023-05-09T03:04:28.209Z,4.68
2023-05-09T03:05:29.744Z,4.28
2023-05-09T03:06:31.412Z,4.80
2023-05-09T03:07:33.000Z,4.70
2023-05-09T03:08:34.540Z,4.30
2023-05-09T03:09:36.138Z,4.03
2023-05-09T03:10:37.682Z,4.25
2023-05-09T03:11:39.317Z,4.25
2023-05-09T03:12:43.679Z,4.32
2023-05-09T03:13:45.712Z,4.57
2023-05-09T03:14:47.392Z,4.40
2023-05-09T03:15:48.981Z,4.78
2023-05-09T03:16:50.551Z,4.20
2023-05-09T03:17:52.133Z,4.25
2023-05-09T03:18:54.048Z,4.35
2023-05-09T03:19:55.669Z,4.18
2023-05-09T03:20:57.368Z,4.45
2023-05-09T03:21:58.912Z,4.25
2023-05-09T03:23:00.862Z,4.30
2023-05-09T03:24:04.592Z,4.65
2023-05-09T03:25:06.556Z,4.82
2023-05-09T03:26:08.113Z,4.55
2023-05-09T03:27:09.652Z,4.57
2023-05-09T03:28:11.506Z,4.25
2023-05-09T03:29:13.092Z,4.45
2023-05-09T03:30:14.756Z,4.45
2023-05-09T03:31:16.407Z,4.68
2023-05-09T03:32:17.990Z,4.88
2023-05-09T03:33:19.917Z,4.68
2023-05-09T03:34:21.526Z,4.47
2023-05-09T03:35:23.164Z,4.70
2023-05-09T03:36:24.864Z,4.60
2023-05-09T03:37:27.185Z,4.22
2023-05-09T03:38:28.930Z,4.25
2023-05-09T03:39:30.542Z,4.72
2023-05-09T03:40:32.076Z,4.40
2023-05-09T03:41:36.001Z,4.85
2023-05-09T03:42:37.564Z,4.15
2023-05-09T03:43:39.249Z,4.25
2023-05-09T03:44:40.943Z,4.63
2023-05-09T03:45:42.485Z,4.13
2023-05-09T03:46:44.042Z,4.72
2023-05-09T03:47:46.257Z,4.55
2023-05-09T03:48:47.853Z,4.25
2023-05-09T03:49:49.432Z,4.78
2023-05-09T03:50:51.030Z,4.40
2023-05-09T03:51:52.536Z,4.85
2023-05-09T03:52:55.259Z,4.95
2023-05-09T03:53:56.792Z,4.65
2023-05-09T03:54:58.355Z,4.97
2023-05-09T03:55:59.905Z,4.50
2023-05-09T03:57:01.438Z,5.38
2023-05-09T03:58:03.803Z,5.15
2023-05-09T03:59:05.352Z,4.80
2023-05-09T04:00:08.131Z,4.85
2023-05-09T04:01:09.750Z,4.75
2023-05-09T04:02:11.671Z,4.97
2023-05-09T04:03:13.268Z,5.18
2023-05-09T04:04:14.836Z,4.55
2023-05-09T04:05:16.801Z,4.80
2023-05-09T04:06:18.893Z,4.80
2023-05-09T04:07:20.810Z,6.03
2023-05-09T04:08:22.342Z,5.55
2023-05-09T04:09:23.917Z,5.47
2023-05-09T04:10:25.747Z,5.35
2023-05-09T04:11:27.300Z,4.80
2023-05-09T04:12:28.854Z,4.72
2023-05-09T04:13:31.778Z,4.78
2023-05-09T04:14:33.369Z,4.45
2023-05-09T04:15:34.926Z,4.68
2023-05-09T04:16:36.520Z,5.05
2023-05-09T04:17:38.089Z,5.22
2023-05-09T04:18:42.179Z,4.75
2023-05-09T04:19:43.728Z,4.90
2023-05-09T04:20:45.298Z,5.03
2023-05-09T04:21:46.831Z,4.88
2023-05-09T04:22:48.717Z,4.93
2023-05-09T04:23:50.467Z,4.70
2023-05-09T04:24:52.004Z,4.53
2023-05-09T04:25:54.369Z,5.07
2023-05-09T04:26:56.000Z,4.95
2023-05-09T04:27:57.789Z,5.25
2023-05-09T04:28:59.317Z,4.70
2023-05-09T04:30:00.854Z,5.18
2023-05-09T04:31:03.084Z,5.40
2023-05-09T04:32:05.212Z,5.35
2023-05-09T04:33:06.826Z,5.10
2023-05-09T04:34:08.340Z,4.75
2023-05-09T04:35:10.121Z,5.05
2023-05-09T04:36:12.292Z,5.35
2023-05-09T04:37:13.898Z,5.80
2023-05-09T04:38:16.693Z,4.95
2023-05-09T04:39:18.906Z,4.95
2023-05-09T04:40:20.572Z,5.60
2023-05-09T04:41:22.776Z,5.10
2023-05-09T04:42:24.293Z,5.22
2023-05-09T04:43:28.023Z,5.20
2023-05-09T04:44:29.606Z,5.28
2023-05-09T04:45:31.819Z,5.30
2023-05-09T04:46:33.398Z,5.68
2023-05-09T04:47:34.988Z,5.05
2023-05-09T04:48:36.518Z,5.72
2023-05-09T04:49:38.030Z,5.30
2023-05-09T04:50:39.547Z,5.32
2023-05-09T04:51:41.110Z,5.82
2023-05-09T04:52:42.641Z,5.30
2023-05-09T04:53:44.160Z,5.28
2023-05-09T04:54:45.733Z,5.47
2023-05-09T04:55:47.281Z,4.80
2023-05-09T04:56:50.600Z,4.82
2023-05-09T04:57:52.346Z,5.20
2023-05-09T04:58:54.051Z,4.68
2023-05-09T04:59:55.901Z,5.20
2023-05-09T05:00:57.411Z,5.00
2023-05-09T05:01:59.171Z,5.18
2023-05-09T05:03:01.452Z,5.18
2023-05-09T05:04:03.001Z,5.47
2023-05-09T05:05:11.456Z,6.20
2023-05-09T05:06:13.904Z,6.43
2023-05-09T05:07:15.796Z,5.72
2023-05-09T05:08:17.635Z,5.05
2023-05-09T05:09:19.173Z,5.30
2023-05-09T05:10:20.937Z,5.22
2023-05-09T05:11:22.657Z,5.25
2023-05-09T05:12:24.878Z,5.30
2023-05-09T05:13:26.549Z,5.20
2023-05-09T05:14:28.528Z,5.60
2023-05-09T05:15:32.439Z,5.20
2023-05-09T05:16:34.869Z,5.25
2023-05-09T05:17:36.665Z,5.32
2023-05-09T05:18:38.233Z,4.80
2023-05-09T05:19:39.828Z,6.05
2023-05-09T05:20:41.765Z,5.47
2023-05-09T05:21:43.768Z,5.00
2023-05-09T05:22:45.879Z,5.10
2023-05-09T05:23:50.132Z,5.40
2023-05-09T05:24:52.122Z,5.50
2023-05-09T05:25:53.904Z,5.40
2023-05-09T05:26:55.582Z,5.53
2023-05-09T05:27:57.550Z,5.70
2023-05-09T05:29:01.557Z,5.90
2023-05-09T05:30:04.031Z,5.25
2023-05-09T05:31:05.926Z,5.18
2023-05-09T05:32:07.523Z,5.95
2023-05-09T05:33:09.492Z,5.32
2023-05-09T05:34:11.122Z,5.93
2023-05-09T05:35:12.903Z,5.28
2023-05-09T05:36:14.885Z,5.78
2023-05-09T05:37:16.401Z,5.53
2023-05-09T05:38:18.239Z,5.55
2023-05-09T05:39:19.801Z,5.53
2023-05-09T05:40:21.389Z,5.60
2023-05-09T05:41:23.484Z,7.10
2023-05-09T05:42:25.022Z,7.00
2023-05-09T05:43:26.549Z,5.30
2023-05-09T05:44:28.064Z,5.38
2023-05-09T05:45:31.007Z,6.15
2023-05-09T05:46:32.667Z,5.95
2023-05-09T05:47:35.281Z,6.25
2023-05-09T05:48:37.179Z,5.78
2023-05-09T05:49:38.793Z,5.35
2023-05-09T05:50:40.325Z,5.13
2023-05-09T05:51:41.888Z,5.20
2023-05-09T05:52:43.440Z,5.82
2023-05-09T05:53:45.277Z,5.43
2023-05-09T05:54:47.291Z,5.47
2023-05-09T05:55:49.175Z,5.72
2023-05-09T05:56:50.938Z,5.30
2023-05-09T05:57:52.516Z,5.25
2023-05-09T05:58:54.418Z,5.28
2023-05-09T05:59:55.935Z,5.00
2023-05-09T06:00:57.815Z,5.22
2023-05-09T06:01:59.409Z,5.10
2023-05-09T06:03:01.175Z,5.35
2023-05-09T06:04:03.980Z,5.07
2023-05-09T06:05:07.239Z,5.28
2023-05-09T06:06:08.989Z,5.18
2023-05-09T06:07:14.107Z,5.25
2023-05-09T06:08:16.190Z,5.10
2023-05-09T06:09:17.770Z,5.18
2023-05-09T06:10:19.440Z,4.80
2023-05-09T06:11:21.249Z,5.18
2023-05-09T06:12:22.768Z,4.88
2023-05-09T06:13:24.534Z,4.65
2023-05-09T06:14:26.229Z,4.50
2023-05-09T06:15:27.758Z,4.57
2023-05-09T06:16:29.354Z,5.25
2023-05-09T06:17:30.990Z,5.38
2023-05-09T06:18:37.584Z,5.38
2023-05-09T06:19:39.093Z,4.90
2023-05-09T06:20:40.887Z,5.07
2023-05-09T06:21:45.725Z,5.22
2023-05-09T06:22:47.619Z,5.10
2023-05-09T06:24:04.975Z,5.07
2023-05-09T06:25:12.800Z,5.65
2023-05-09T06:26:15.015Z,5.18
2023-05-09T06:27:16.559Z,5.25
2023-05-09T06:28:18.076Z,5.00
2023-05-09T06:29:19.617Z,5.60
2023-05-09T06:31:26.288Z,5.80
2023-05-09T06:32:27.859Z,5.85
2023-05-09T06:33:29.484Z,4.72
2023-05-09T06:34:31.013Z,5.07
2023-05-09T06:35:33.010Z,4.93
2023-05-09T06:36:34.847Z,4.88
2023-05-09T06:37:36.338Z,4.80
2023-05-09T06:38:38.747Z,4.93
2023-05-09T06:39:40.461Z,5.03
2023-05-09T06:40:45.635Z,4.65
2023-05-09T06:41:47.607Z,4.80
2023-05-09T06:44:14.824Z,4.85
2023-05-09T07:54:40.132Z,4.22
2023-05-09T07:55:51.894Z,4.18
2023-05-09T07:56:53.500Z,3.67
2023-05-09T07:57:55.050Z,3.70
2023-05-09T07:58:56.709Z,3.63
2023-05-09T07:59:58.325Z,3.90
2023-05-09T08:00:59.883Z,3.85
2023-05-09T08:02:02.156Z,3.83
2023-05-09T08:03:03.998Z,4.22
2023-05-09T08:04:07.008Z,3.83
2023-05-09T08:06:11.193Z,3.95
2023-05-09T08:07:13.062Z,4.63
2023-05-09T08:08:14.599Z,4.60
2023-05-09T08:09:19.419Z,3.58
2023-05-09T08:10:22.370Z,3.95
2023-05-09T08:11:23.940Z,3.63
2023-05-09T08:12:25.964Z,4.20
2023-05-09T08:13:27.647Z,4.25
2023-05-09T08:14:29.934Z,4.15
2023-05-09T08:16:19.946Z,3.88
2023-05-09T08:17:21.556Z,3.10
2023-05-09T08:18:25.538Z,3.20
2023-05-09T08:19:27.189Z,3.63
2023-05-09T08:20:29.263Z,3.65
2023-05-09T08:21:33.690Z,3.65
2023-05-09T08:22:35.589Z,3.63
2023-05-09T08:23:37.436Z,3.95
2023-05-09T08:24:39.298Z,4.28
2023-05-09T08:25:40.882Z,4.43
2023-05-09T08:26:42.421Z,3.90
2023-05-09T08:27:44.739Z,3.80
2023-05-09T08:28:46.279Z,3.80
2023-05-09T08:29:47.823Z,3.50
2023-05-09T08:30:49.424Z,4.15
2023-05-09T08:31:53.794Z,3.63
2023-05-09T08:32:56.656Z,3.92
2023-05-09T08:34:59.770Z,3.97
2023-05-09T08:36:02.056Z,4.05
2023-05-09T08:37:04.241Z,3.83
2023-05-09T08:38:05.877Z,3.70
2023-05-09T08:39:09.476Z,3.70
2023-05-09T09:16:29.001Z,3.50
2023-05-09T09:18:32.257Z,3.20
2023-05-09T09:19:34.099Z,4.03
2023-05-09T09:20:36.763Z,3.17
2023-05-09T09:21:40.221Z,2.97
2023-05-09T09:22:43.110Z,3.63
2023-05-09T09:46:54.719Z,2.41
2023-05-09T09:47:55.580Z,2.40
2023-05-09T09:48:56.958Z,2.95
2023-05-09T09:49:58.462Z,2.30
2023-05-09T09:51:09.963Z,2.42
2023-05-09T09:52:11.870Z,2.20
2023-05-09T09:53:13.730Z,3.05
2023-05-09T09:54:15.456Z,2.47
2023-05-09T09:55:17.844Z,2.65
2023-05-09T09:56:21.454Z,2.85
2023-05-09T09:57:37.037Z,2.53
2023-05-09T09:58:38.583Z,2.80
2023-05-09T09:59:40.121Z,3.00
2023-05-09T10:00:41.701Z,3.30
2023-05-09T10:03:17.443Z,3.55
2023-05-09T10:04:19.001Z,3.60
2023-05-09T10:05:24.092Z,3.47
2023-05-09T10:06:25.609Z,2.85
2023-05-09T10:07:27.148Z,3.45
2023-05-09T10:08:28.660Z,3.05
2023-05-09T10:09:30.194Z,3.60
2023-05-09T10:10:32.743Z,3.03
2023-05-09T10:11:34.312Z,2.85
2023-05-09T10:12:36.894Z,2.92
2023-05-09T10:13:38.808Z,3.08
2023-05-09T10:14:40.799Z,2.85
2023-05-09T10:15:53.049Z,3.30
2023-05-09T10:16:57.157Z,2.53
2023-05-09T10:18:00.949Z,2.63
2023-05-09T10:19:02.757Z,2.70
2023-05-09T10:20:07.767Z,2.75
2023-05-09T10:21:09.442Z,3.17
2023-05-09T10:22:11.067Z,3.00
2023-05-09T10:23:12.597Z,4.38
2023-05-09T10:24:14.122Z,3.58
2023-05-09T10:25:25.983Z,3.97
2023-05-09T10:26:29.076Z,5.00
2023-05-09T10:27:34.832Z,7.03
2023-05-09T10:28:36.397Z,5.28
2023-05-09T10:29:40.451Z,3.40
2023-05-09T10:30:58.514Z,3.28
2023-05-09T10:32:00.251Z,2.80
2023-05-09T10:33:09.064Z,2.50
2023-05-09T10:34:10.690Z,2.00
2023-05-09T10:35:14.092Z,2.78
2023-05-09T10:36:18.212Z,2.97
2023-05-09T10:37:21.759Z,2.70
2023-05-09T10:38:24.670Z,2.80
2023-05-09T10:39:27.408Z,2.00
2023-05-09T10:40:29.175Z,2.10
2023-05-09T10:41:31.162Z,2.90
2023-05-09T10:42:32.928Z,3.15
2023-05-09T10:43:36.608Z,2.40
2023-05-09T10:44:38.288Z,2.70
2023-05-09T10:45:40.079Z,2.05
2023-05-09T10:46:41.662Z,2.50
2023-05-09T10:47:43.796Z,2.30
2023-05-09T10:48:45.511Z,2.35
2023-05-09T10:49:47.384Z,2.58
2023-05-09T10:50:49.091Z,2.65
2023-05-09T10:51:53.654Z,2.75
2023-05-09T10:53:04.282Z,2.00
2023-05-09T10:54:13.725Z,2.40
2023-05-09T10:55:15.588Z,2.95
2023-05-09T10:56:33.611Z,2.70
2023-05-09T10:57:35.508Z,2.30
2023-05-09T10:58:41.388Z,2.97
2023-05-09T10:59:43.402Z,2.38
2023-05-09T11:00:45.005Z,2.20
2023-05-09T11:01:46.855Z,2.08
2023-05-09T11:03:07.998Z,2.70
2023-05-09T11:04:11.502Z,2.60
2023-05-09T11:05:20.286Z,2.63
2023-05-09T11:06:40.857Z,1.98
2023-05-09T11:07:44.024Z,2.70
2023-05-09T11:08:45.717Z,2.30
2023-05-09T11:09:47.228Z,2.15
2023-05-09T11:10:48.807Z,2.72
2023-05-09T11:11:54.004Z,2.03
2023-05-09T11:13:00.044Z,1.98
2023-05-09T11:14:01.556Z,2.17
2023-05-09T11:15:07.752Z,2.05
2023-05-09T11:16:09.995Z,2.38
2023-05-09T11:17:12.948Z,2.70
2023-05-09T11:18:14.562Z,2.47
2023-05-09T11:19:37.074Z,2.40
2023-05-09T11:20:45.329Z,2.53
2023-05-09T11:22:03.484Z,2.38
2023-05-09T11:23:06.479Z,2.35
2023-05-09T11:24:17.489Z,2.28
2023-05-09T11:25:25.279Z,2.60
2023-05-09T11:26:28.830Z,3.70
2023-05-09T11:27:44.697Z,2.63
2023-05-09T11:28:52.381Z,2.90
2023-05-09T11:29:58.594Z,2.63
2023-05-09T11:31:13.784Z,2.45
2023-05-09T11:32:16.123Z,2.30
2023-05-09T11:33:24.974Z,2.25
2023-05-09T11:34:26.494Z,2.70
2023-05-09T11:35:28.038Z,2.53
2023-05-09T11:36:32.104Z,2.70
2023-05-09T11:37:34.051Z,2.28
2023-05-09T11:38:41.997Z,2.20
2023-05-09T11:39:58.600Z,2.33
2023-05-09T11:41:00.108Z,2.50
2023-05-09T11:42:02.021Z,2.70
2023-05-09T11:43:03.941Z,2.30
2023-05-09T11:44:15.697Z,2.30
2023-05-09T11:45:17.509Z,2.22
2023-05-09T11:46:19.244Z,2.30
2023-05-09T11:47:21.788Z,2.28
2023-05-09T11:48:24.479Z,2.63
2023-05-09T11:49:26.002Z,2.72
2023-05-09T11:50:27.559Z,2.60
2023-05-09T11:51:30.435Z,2.47
2023-05-09T11:53:34.125Z,3.00
2023-05-09T11:54:39.304Z,2.80
2023-05-09T11:55:41.260Z,2.58
2023-05-09T11:56:42.797Z,2.50
2023-05-09T11:57:52.185Z,2.50
2023-05-09T11:58:53.717Z,2.30
2023-05-09T11:59:55.519Z,2.88
2023-05-09T12:00:57.481Z,2.67
2023-05-09T12:02:05.576Z,2.53
2023-05-09T12:03:07.943Z,2.60
2023-05-09T12:04:09.710Z,2.60
2023-05-09T12:05:16.010Z,2.40
2023-05-09T12:06:18.902Z,2.42
2023-05-09T12:07:20.633Z,2.40
2023-05-09T12:08:23.134Z,2.17
2023-05-09T12:09:25.871Z,2.58
2023-05-09T12:10:27.448Z,2.80
2023-05-09T12:11:32.245Z,2.22
2023-05-09T12:12:35.427Z,2.80
2023-05-09T12:13:50.282Z,2.60
2023-05-09T12:14:51.999Z,2.30
2023-05-09T12:16:00.518Z,2.60
2023-05-09T12:17:02.145Z,2.25
2023-05-09T12:18:05.132Z,1.80
2023-05-09T12:19:06.783Z,2.28
2023-05-09T12:20:08.975Z,2.30
2023-05-09T12:21:10.729Z,2.35
2023-05-09T12:22:12.256Z,2.30
2023-05-09T12:23:14.883Z,1.95
2023-05-09T12:25:24.618Z,2.13
2023-05-09T12:26:27.095Z,1.95
2023-05-09T12:27:29.152Z,2.22
2023-05-09T12:28:31.203Z,2.13
2023-05-09T12:29:32.855Z,1.95
2023-05-09T12:30:34.499Z,2.40
2023-05-09T12:31:37.276Z,1.73
2023-05-09T12:33:42.500Z,2.90
2023-05-09T12:34:48.539Z,2.83
2023-05-09T12:36:11.284Z,1.75
2023-05-09T12:37:17.371Z,2.42
2023-05-09T12:38:22.202Z,2.28
2023-05-09T12:39:24.473Z,2.05
2023-05-09T12:40:26.209Z,1.90
2023-05-09T12:41:39.291Z,2.38
2023-05-09T12:42:46.439Z,2.00
2023-05-09T12:43:49.106Z,2.00
2023-05-09T12:44:50.683Z,1.90
2023-05-09T12:45:55.398Z,1.38
2023-05-09T12:47:03.664Z,1.50
2023-05-09T12:48:06.193Z,1.88
2023-05-09T12:49:20.053Z,1.60
2023-05-09T12:50:21.815Z,2.10
2023-05-09T12:51:23.566Z,1.95
2023-05-09T12:52:25.173Z,2.05
2023-05-09T12:53:27.520Z,2.05
2023-05-09T12:54:29.638Z,1.58
2023-05-09T12:55:32.780Z,1.80
2023-05-09T12:56:35.278Z,1.58
2023-05-09T12:57:37.162Z,1.70
2023-05-09T12:58:39.518Z,1.80
2023-05-09T12:59:43.775Z,2.40
2023-05-09T13:00:45.580Z,1.90
2023-05-09T13:02:00.496Z,1.50
2023-05-09T13:03:02.654Z,1.73
2023-05-09T13:04:05.270Z,1.52
2023-05-09T13:05:11.116Z,1.48
2023-05-09T13:06:13.858Z,1.60
2023-05-09T13:07:15.389Z,1.52
2023-05-09T13:08:17.236Z,1.35
2023-05-09T13:09:18.874Z,1.52
2023-05-09T13:10:24.165Z,1.60
2023-05-09T13:11:25.917Z,1.60
2023-05-09T13:12:27.437Z,1.60
2023-05-09T13:13:29.428Z,1.77
2023-05-09T13:14:31.057Z,1.60
2023-05-09T13:15:33.774Z,1.83
2023-05-09T13:16:35.774Z,1.40
2023-05-09T13:17:37.779Z,1.60
2023-05-09T13:18:39.410Z,1.75
2023-05-09T13:19:41.144Z,1.60
2023-05-09T13:20:42.690Z,1.80
2023-05-09T13:21:44.226Z,1.90
2023-05-09T13:22:46.049Z,2.00
2023-05-09T13:23:50.499Z,2.25
2023-05-09T13:24:52.156Z,1.83
2023-05-09T13:25:53.928Z,2.13
2023-05-09T13:26:55.666Z,1.80
2023-05-09T13:27:57.222Z,2.03
2023-05-09T13:28:58.796Z,1.73
2023-05-09T13:30:00.422Z,1.85
2023-05-09T13:31:02.971Z,2.00
2023-05-09T13:32:04.667Z,1.92
2023-05-09T13:33:23.782Z,1.60
2023-05-09T13:34:26.560Z,1.83
2023-05-09T13:35:28.293Z,1.40
2023-05-09T13:36:29.882Z,2.28
2023-05-09T13:37:31.407Z,1.83
2023-05-09T13:38:37.074Z,10.32
2023-05-09T13:39:38.576Z,3.00
2023-05-09T13:40:40.171Z,2.40
2023-05-09T13:41:41.708Z,1.50
2023-05-09T13:42:43.284Z,1.65
2023-05-09T13:43:44.832Z,1.75
2023-05-09T13:44:46.356Z,2.10
2023-05-09T13:45:47.917Z,1.85
2023-05-09T13:46:49.934Z,1.65
2023-05-09T13:47:52.057Z,1.70
2023-05-09T13:48:54.204Z,2.08
2023-05-09T13:49:55.909Z,1.80
2023-05-09T13:50:59.525Z,2.20
2023-05-09T13:52:01.496Z,1.90
2023-05-09T13:53:03.711Z,1.27
2023-05-09T13:54:09.652Z,1.75
2023-05-09T13:55:11.255Z,1.90
2023-05-09T13:56:12.886Z,1.60
2023-05-09T13:57:14.425Z,1.75
2023-05-09T13:58:16.614Z,1.30
2023-05-09T13:59:18.301Z,2.03
2023-05-09T14:00:21.377Z,1.60
2023-05-09T14:01:23.439Z,1.55
2023-05-09T14:02:25.146Z,1.70
2023-05-09T14:03:27.090Z,1.90
2023-05-09T14:04:29.524Z,1.98
2023-05-09T14:05:34.122Z,1.23
2023-05-09T14:06:35.684Z,2.10
2023-05-09T14:07:37.636Z,2.50
2023-05-09T14:08:39.844Z,1.70
2023-05-09T14:09:42.232Z,1.80
2023-05-09T14:10:44.613Z,1.90
2023-05-09T14:11:46.114Z,1.90
2023-05-09T14:12:48.107Z,1.95
2023-05-09T14:13:49.640Z,1.92
2023-05-09T14:14:51.253Z,1.60
2023-05-09T14:15:52.867Z,1.73
2023-05-09T14:16:54.662Z,1.60
2023-05-09T14:17:57.308Z,1.98
2023-05-09T14:18:58.906Z,1.85
2023-05-09T14:20:00.483Z,1.70
2023-05-09T14:21:02.007Z,1.40
2023-05-09T14:22:04.425Z,1.80
2023-05-09T14:23:06.190Z,1.77
2023-05-09T14:24:07.958Z,1.77
2023-05-09T14:25:12.548Z,1.70
2023-05-09T14:26:14.097Z,1.67
2023-05-09T14:27:16.420Z,2.55
2023-05-09T14:28:18.008Z,2.00
2023-05-09T14:29:19.527Z,2.15
2023-05-09T14:30:21.060Z,1.83
2023-05-09T14:31:22.587Z,1.75
2023-05-09T14:32:25.351Z,1.60
2023-05-09T14:33:27.931Z,1.60
2023-05-09T14:34:29.496Z,1.70
2023-05-09T14:35:34.103Z,1.70
2023-05-09T14:36:37.480Z,1.45
2023-05-09T14:37:39.655Z,1.65
2023-05-09T14:38:42.716Z,1.65
2023-05-09T14:39:45.134Z,1.80
2023-05-09T14:40:46.786Z,1.55
2023-05-09T14:41:50.055Z,1.55
2023-05-09T14:42:51.678Z,1.70
2023-05-09T14:43:53.187Z,1.75
2023-05-09T14:44:54.729Z,1.70
2023-05-09T14:45:57.229Z,1.83
2023-05-09T14:46:59.040Z,1.60
2023-05-09T14:48:00.685Z,1.70
2023-05-09T14:49:04.258Z,1.60
2023-05-09T14:50:07.346Z,1.42
2023-05-09T14:51:09.195Z,1.63
2023-05-09T14:52:11.025Z,1.55
2023-05-09T14:53:12.955Z,1.90
2023-05-09T14:54:15.661Z,1.65
2023-05-09T14:55:21.306Z,1.90
2023-05-09T14:56:23.277Z,1.77
2023-05-09T14:57:25.139Z,2.00
2023-05-09T14:58:27.406Z,1.40
2023-05-09T14:59:29.527Z,1.67
2023-05-09T15:00:31.087Z,1.90
2023-05-09T15:01:33.065Z,1.65
2023-05-09T15:02:34.682Z,1.65
2023-05-09T15:03:36.245Z,1.77
2023-05-09T15:04:37.885Z,1.67
2023-05-09T15:05:39.629Z,1.70
2023-05-09T15:06:41.170Z,1.70
2023-05-09T15:07:42.772Z,2.00
2023-05-09T15:08:44.352Z,5.35
2023-05-09T15:09:45.986Z,1.63
2023-05-09T15:10:48.267Z,1.75
2023-05-09T15:11:49.831Z,1.92
2023-05-09T15:12:51.479Z,1.58
2023-05-09T15:13:53.159Z,2.17
2023-05-09T15:14:55.485Z,1.95
2023-05-09T15:15:57.308Z,1.55
2023-05-09T15:17:01.668Z,2.10
2023-05-09T15:18:03.388Z,2.00
2023-05-09T15:19:05.817Z,2.00
2023-05-09T15:20:07.813Z,1.80
2023-05-09T15:21:09.731Z,1.80
2023-05-09T15:22:11.629Z,1.60
2023-05-09T15:23:13.582Z,1.83
2023-05-09T15:24:15.864Z,2.30
2023-05-09T15:25:17.550Z,1.80
2023-05-09T15:26:19.095Z,2.40
2023-05-09T15:27:20.717Z,2.10
2023-05-09T15:28:22.342Z,2.05
2023-05-09T15:29:23.890Z,2.13
2023-05-09T15:30:25.542Z,1.85
2023-05-09T15:31:31.622Z,1.50
2023-05-09T15:32:33.790Z,1.80
2023-05-09T15:33:35.333Z,1.60
2023-05-09T15:34:36.858Z,1.75
2023-05-09T15:35:38.593Z,2.13
2023-05-09T15:36:40.119Z,1.85
2023-05-09T15:37:41.716Z,1.42
2023-05-09T15:38:48.335Z,2.13
2023-05-09T15:39:49.926Z,1.70
2023-05-09T15:40:51.724Z,2.10
2023-05-09T15:41:53.951Z,1.60
2023-05-09T15:42:55.533Z,1.75
2023-05-09T15:43:57.470Z,2.05
2023-05-09T15:44:58.991Z,3.10
2023-05-09T15:46:01.023Z,2.80
2023-05-09T15:47:02.628Z,3.55
2023-05-09T15:48:04.445Z,2.67
2023-05-09T15:49:05.953Z,2.33
2023-05-09T15:50:08.306Z,2.78
2023-05-09T15:51:10.092Z,2.50
2023-05-09T15:52:11.663Z,2.00
2023-05-09T15:53:15.504Z,2.10
2023-05-09T15:54:17.466Z,2.13
2023-05-09T15:55:19.220Z,2.17
2023-05-09T15:56:21.632Z,1.70
2023-05-09T15:57:23.201Z,1.77
2023-05-09T15:58:24.843Z,1.95
2023-05-09T15:59:27.308Z,2.40
2023-05-09T16:00:30.087Z,2.00
2023-05-09T16:02:37.825Z,1.77
2023-05-09T16:03:40.225Z,2.00
2023-05-09T16:04:43.920Z,2.00
2023-05-09T16:05:45.466Z,2.17
2023-05-09T16:06:47.403Z,2.17
2023-05-09T16:07:50.135Z,1.75
2023-05-09T16:08:51.741Z,2.08
2023-05-09T16:09:53.279Z,1.90
2023-05-09T16:10:54.855Z,2.03
2023-05-09T16:11:56.750Z,1.70
2023-05-09T16:12:58.387Z,1.95
2023-05-09T16:14:00.171Z,1.88
2023-05-09T16:15:01.811Z,2.42
2023-05-09T16:16:03.537Z,2.58
2023-05-09T16:17:05.196Z,2.15
2023-05-09T16:18:06.758Z,2.00
2023-05-09T16:19:08.710Z,2.00
2023-05-09T16:20:13.816Z,1.90
2023-05-09T16:21:15.893Z,1.98
2023-05-09T16:22:17.559Z,2.55
2023-05-09T16:23:19.165Z,2.13